»·PEaware :: NKS501 KOTH-KMSO

NKS501 :: KOTH-KMSO

FLIGHT INFORMATION

Flight Status: Arrived
Operator:
Spirit Airlines
More flights by this operator :: More flights under this callsign
Pilot: Ben L. (6391)
Aircraft: AIRBUS A319
(A319)
More flights by this aircraft type
Origin: KOTH North Bend Mun
United States
Destination: KMSO Missoula Intl
United States
More flights between these airports :: More routes between these airports
Route: OTH6 SCOTY MSO
File this flight plan on PilotEdge
Remarks:
Altitude:
(Current/Filed)
35,000ft
Speed:
(Current/Filed)
450kts
Departed: 05-May-18 08:08 PM
Arrived: 05-May-18 09:31 PM
Distance/Time
Traveled:
478nm/1:23
Distance/Time
To Go:
Arrived

Flight Plot

Page will automatically refresh every two minutes.

Flight plan parsing failed; only flown route is shown


Map Options




Map Legend


Flown Route
Filed Route
Departure Airport
Arrival Airport
Navaid (VOR, NDB)
Fix

Horizontal Profiles

Position Reports

Time Latitude Longitude Heading Altitude Ground
Speed
05-May-18 19:52 43.416922 -124.249528 210 26ft 0kts
05-May-18 19:53 43.416922 -124.249528 210 26ft 0kts
05-May-18 19:54 43.416922 -124.249528 210 26ft 0kts
05-May-18 19:55 43.416922 -124.249528 210 26ft 0kts
05-May-18 19:56 43.416922 -124.249528 210 26ft 0kts
05-May-18 19:57 43.416922 -124.249528 210 26ft 0kts
05-May-18 19:58 43.416922 -124.249528 210 26ft 0kts
05-May-18 19:59 43.416922 -124.249528 210 26ft 0kts
05-May-18 20:00 43.416922 -124.249528 210 26ft 0kts
05-May-18 20:01 43.416922 -124.249528 210 26ft 0kts
05-May-18 20:02 43.417050 -124.249426 210 26ft 1kts
05-May-18 20:03 43.417475 -124.249363 156 26ft 0kts
05-May-18 20:04 43.417474 -124.249363 156 26ft 0kts
05-May-18 20:05 43.417526 -124.249248 322 26ft 0kts
05-May-18 20:06 43.417530 -124.249252 321 26ft 0kts
05-May-18 20:07 43.419783 -124.245188 61 26ft 42kts
05-May-18 20:08 43.422033 -124.240656 7 26ft 0kts
05-May-18 20:09 43.422136 -124.240676 343 26ft 7kts
05-May-18 20:10 43.418095 -124.252340 239 26ft 139kts
05-May-18 20:11 43.406088 -124.310811 278 2638ft 183kts
05-May-18 20:12 43.421442 -124.390023 316 4750ft 265kts
05-May-18 20:13 43.488274 -124.376878 63 8118ft 291kts
05-May-18 20:14 43.467445 -124.278173 126 10854ft 307kts
05-May-18 20:15 43.435676 -124.160506 79 12839ft 371kts
05-May-18 20:16 43.503749 -124.050561 44 15544ft 397kts
05-May-18 20:17 43.583790 -123.943345 50 17931ft 412kts
05-May-18 20:18 43.644032 -123.808659 63 20073ft 424kts
05-May-18 20:19 43.700889 -123.665321 63 21929ft 441kts
05-May-18 20:20 43.760057 -123.515998 63 23678ft 457kts
05-May-18 20:21 43.820885 -123.361753 63 25306ft 469kts
05-May-18 20:22 43.880098 -123.210418 64 26696ft 480kts
05-May-18 20:23 43.942450 -123.050443 64 27974ft 491kts
05-May-18 20:25 44.006371 -122.885559 64 29192ft 499kts
05-May-18 20:26 44.071232 -122.717318 64 30678ft 498kts
05-May-18 20:27 44.129915 -122.564818 64 31754ft 499kts
05-May-18 20:28 44.194225 -122.397025 64 32914ft 497kts
05-May-18 20:29 44.256252 -122.232991 65 33767ft 499kts
05-May-18 20:30 44.320168 -122.062987 65 34578ft 499kts
05-May-18 20:31 44.383575 -121.893536 65 35083ft 499kts
05-May-18 20:32 44.446852 -121.723439 65 35085ft 499kts
05-May-18 20:33 44.510032 -121.552550 65 35082ft 499kts
05-May-18 20:34 44.572980 -121.381214 65 35081ft 499kts
05-May-18 20:35 44.633716 -121.214525 66 35078ft 498kts
05-May-18 20:36 44.695858 -121.042895 65 35080ft 512kts
05-May-18 20:37 44.759901 -120.865227 64 35081ft 525kts
05-May-18 20:38 44.824723 -120.684539 64 35082ft 525kts
05-May-18 20:39 44.889151 -120.503517 64 35069ft 525kts
05-May-18 20:40 44.951127 -120.328164 65 35023ft 524kts
05-May-18 20:41 45.012984 -120.151501 65 35038ft 524kts
05-May-18 20:42 45.076458 -119.969465 64 35041ft 524kts
05-May-18 20:43 45.137240 -119.795032 64 35039ft 524kts
05-May-18 20:44 45.198987 -119.616571 64 35044ft 524kts
05-May-18 20:45 45.261803 -119.432931 64 35043ft 524kts
05-May-18 20:46 45.321565 -119.256737 65 35034ft 524kts
05-May-18 20:47 45.383451 -119.072926 65 35048ft 524kts
05-May-18 20:48 45.445385 -118.888096 65 35053ft 523kts
05-May-18 20:49 45.507120 -118.702499 65 35053ft 523kts
05-May-18 20:50 45.568709 -118.516056 65 35053ft 523kts
05-May-18 20:51 45.627906 -118.335573 66 35060ft 524kts
05-May-18 20:52 45.688928 -118.147720 66 35087ft 523kts
05-May-18 20:53 45.748869 -117.962294 66 35076ft 523kts
05-May-18 20:54 45.809455 -117.773595 66 35091ft 524kts
05-May-18 20:55 45.869474 -117.585257 66 35083ft 523kts
05-May-18 20:56 45.928960 -117.397222 66 35073ft 524kts
05-May-18 20:57 45.986707 -117.213038 67 35075ft 524kts
05-May-18 20:58 46.044992 -117.025775 66 35080ft 524kts
05-May-18 20:59 46.100379 -116.846637 65 35079ft 526kts
05-May-18 21:00 46.157566 -116.662798 66 35079ft 521kts
05-May-18 21:01 46.210972 -116.488041 66 35092ft 521kts
05-May-18 21:02 46.267750 -116.300550 67 35099ft 520kts
05-May-18 21:03 46.324684 -116.110837 67 35135ft 521kts
05-May-18 21:04 46.381661 -115.919887 67 35136ft 521kts
05-May-18 21:05 46.437997 -115.729651 67 33510ft 516kts
05-May-18 21:06 46.493939 -115.539327 67 30877ft 520kts
05-May-18 21:07 46.549200 -115.349869 68 29897ft 516kts
05-May-18 21:08 46.601827 -115.167613 68 27799ft 508kts
05-May-18 21:09 46.654656 -114.983479 67 25454ft 487kts
05-May-18 21:10 46.705249 -114.806326 67 23077ft 468kts
05-May-18 21:11 46.753692 -114.635347 67 20703ft 450kts
05-May-18 21:12 46.799969 -114.470848 67 18336ft 434kts
05-May-18 21:13 46.842982 -114.316897 68 16003ft 411kts
05-May-18 21:14 46.882408 -114.174898 68 14248ft 343kts
05-May-18 21:15 46.896124 -114.056150 121 12892ft 288kts
05-May-18 21:16 46.854310 -113.965329 126 11501ft 257kts
05-May-18 21:17 46.816403 -113.882328 126 10147ft 231kts
05-May-18 21:18 46.772682 -113.827520 157 8918ft 194kts
05-May-18 21:19 46.721053 -113.812292 184 8798ft 190kts
05-May-18 21:20 46.671248 -113.833210 210 8798ft 187kts
05-May-18 21:21 46.633748 -113.884480 236 8799ft 186kts
05-May-18 21:22 46.616340 -113.954511 263 8799ft 187kts
05-May-18 21:23 46.627722 -114.027791 299 8231ft 190kts
05-May-18 21:24 46.667847 -114.076703 336 7540ft 195kts
05-May-18 21:25 46.721055 -114.080811 6 6647ft 195kts
05-May-18 21:26 46.767152 -114.070240 12 5957ft 155kts
05-May-18 21:27 46.805984 -114.044680 32 5658ft 155kts
05-May-18 21:28 46.841955 -114.011410 17 5097ft 153kts
05-May-18 21:29 46.881845 -114.031995 312 4070ft 157kts
05-May-18 21:30 46.907196 -114.076401 308 3274ft 135kts
05-May-18 21:31 46.918495 -114.093523 37 3214ft 0kts
05-May-18 21:32 46.918075 -114.091347 133 3214ft 14kts
05-May-18 21:33 46.918443 -114.085874 93 3214ft 9kts

Navigation Log

Ident Type
Flight plan parsing failed, navigation log unavailable